Time;durP1;ratioP1;P1;durP2;ratioP2;P2;SDS_P1;SDS_P2;PMS_P1;PMS_P2;Temp;Humidity;BMP_temperature;BMP_pressure;BME280_temperature;BME280_humidity;BME280_pressure;Samples;Min_cycle;Max_cycle;Signal;HPM_P1;HPM_P2
2023/09/09 00:01:21;;;;;;;8.88;4.72;;;;;;;26.47;45.01;99875.84;4990745;28;20112;-76
2023/09/09 00:03:48;;;;;;;7.65;5.10;;;;;;;26.44;45.08;99881.63;4990953;28;20081;-75
2023/09/09 00:06:15;;;;;;;6.72;5.28;;;;;;;26.42;45.48;99876.41;4990852;28;20082;-74
2023/09/09 00:08:43;;;;;;;8.20;5.70;;;;;;;26.39;45.66;99883.03;4991102;28;20117;-76
2023/09/09 00:11:09;;;;;;;6.00;4.70;;;;;;;26.38;45.45;99880.50;4991767;28;20057;-75
2023/09/09 00:13:36;;;;;;;7.10;5.00;;;;;;;26.35;45.42;99879.03;4994467;28;20062;-79
2023/09/09 00:16:03;;;;;;;6.25;5.10;;;;;;;26.32;45.75;99874.03;4977027;28;20058;-74
2023/09/09 00:18:30;;;;;;;5.72;5.07;;;;;;;26.31;45.35;99877.72;4994195;28;20050;-73
2023/09/09 00:20:57;;;;;;;6.28;5.15;;;;;;;26.28;45.57;99872.72;4994070;28;20125;-76
2023/09/09 00:23:24;;;;;;;6.70;5.53;;;;;;;26.25;45.63;99873.06;4994157;28;20054;-75
2023/09/09 00:25:51;;;;;;;12.43;5.93;;;;;;;26.22;45.88;99870.75;4994189;28;20161;-75
2023/09/09 00:28:17;;;;;;;9.20;6.15;;;;;;;26.19;46.07;99873.81;4994103;28;20101;-76
2023/09/09 00:30:44;;;;;;;6.22;5.40;;;;;;;26.15;45.76;99868.81;4993927;28;20043;-74
2023/09/09 00:33:10;;;;;;;5.95;5.35;;;;;;;26.12;46.19;99860.22;4993757;28;20165;-76
2023/09/09 00:35:38;;;;;;;6.28;5.60;;;;;;;26.08;45.76;99861.63;4993842;28;20065;-76
2023/09/09 00:38:07;;;;;;;9.55;6.03;;;;;;;26.05;46.24;99860.16;4993767;28;20392;-75
2023/09/09 00:40:33;;;;;;;9.63;6.07;;;;;;;26.02;46.07;99861.34;4993965;28;20778;-76
2023/09/09 00:43:00;;;;;;;10.15;6.78;;;;;;;25.99;46.05;99855.50;4993642;28;20050;-75
2023/09/09 00:45:30;;;;;;;7.75;5.55;;;;;;;25.98;46.45;99853.84;4993780;28;20085;-77
2023/09/09 00:47:57;;;;;;;10.65;6.20;;;;;;;25.94;46.46;99858.75;4993575;28;20050;-78
2023/09/09 00:50:24;;;;;;;9.18;6.40;;;;;;;25.91;46.37;99852.91;4993883;28;20078;-75
2023/09/09 00:52:51;;;;;;;9.45;6.18;;;;;;;25.89;46.07;99850.38;4975729;28;20487;-76
2023/09/09 00:55:18;;;;;;;7.25;6.25;;;;;;;25.85;46.45;99847.25;4993685;28;20043;-74
2023/09/09 00:57:45;;;;;;;7.30;6.55;;;;;;;25.84;46.62;99855.50;4993461;28;20054;-77
2023/09/09 01:00:12;;;;;;;9.20;6.43;;;;;;;25.81;46.57;99840.53;4976211;28;20134;-77
2023/09/09 01:02:42;;;;;;;7.78;6.10;;;;;;;25.76;46.74;99843.78;4993063;28;20054;-74
2023/09/09 01:05:10;;;;;;;8.85;6.82;;;;;;;25.74;46.42;99847.69;4993644;28;20051;-76
2023/09/09 01:07:48;;;;;;;8.52;6.80;;;;;;;25.68;46.19;99845.75;4993217;28;20062;-75
2023/09/09 01:10:17;;;;;;;10.20;6.80;;;;;;;25.69;46.63;99842.88;4993380;28;20112;-76
2023/09/09 01:12:44;;;;;;;8.15;6.20;;;;;;;25.68;46.51;99841.19;4975596;28;20459;-76
2023/09/09 01:15:12;;;;;;;9.25;7.00;;;;;;;25.65;46.25;99836.19;4993059;28;20069;-74
2023/09/09 01:17:39;;;;;;;9.48;7.40;;;;;;;25.63;46.51;99844.44;4993204;28;20411;-74
2023/09/09 01:20:12;;;;;;;7.75;6.10;;;;;;;25.59;46.37;99843.13;4993135;28;20065;-75
2023/09/09 01:22:39;;;;;;;;;;;;;;;25.57;45.28;99838.94;4992414;28;20454;-76
2023/09/09 01:25:06;;;;;;;7.22;6.50;;;;;;;25.61;46.22;99838.38;4992997;28;19926;-75
2023/09/09 01:27:33;;;;;;;12.30;6.93;;;;;;;25.58;46.08;99837.94;4992849;28;20046;-74
2023/09/09 01:30:00;;;;;;;7.82;6.40;;;;;;;25.55;46.02;99838.25;4993069;28;20054;-75
2023/09/09 01:32:26;;;;;;;9.43;7.03;;;;;;;25.51;46.25;99835.09;4992584;28;20546;-75
2023/09/09 01:34:53;;;;;;;7.95;6.80;;;;;;;25.49;46.11;99847.94;4992884;28;20145;-76
2023/09/09 01:37:19;;;;;;;7.95;6.50;;;;;;;25.47;46.57;99852.66;4992715;28;20050;-76
2023/09/09 01:39:47;;;;;;;7.13;6.05;;;;;;;25.46;46.54;99848.28;4992680;28;20137;-77
2023/09/09 01:42:14;;;;;;;8.27;6.38;;;;;;;25.45;46.30;99846.63;4992273;28;20142;-77
2023/09/09 01:44:47;;;;;;;7.55;6.10;;;;;;;25.42;46.86;99846.97;4975697;28;20050;-74
2023/09/09 01:47:14;;;;;;;6.63;5.93;;;;;;;25.44;46.28;99847.63;4992456;28;20491;-75
2023/09/09 01:49:42;;;;;;;8.02;6.50;;;;;;;25.44;46.33;99844.94;4992609;28;20050;-74
2023/09/09 01:52:08;;;;;;;7.50;6.15;;;;;;;25.42;46.78;99847.81;4992293;28;20467;-74
2023/09/09 01:54:35;;;;;;;6.72;6.07;;;;;;;25.42;46.43;99838.91;5063747;23;20053;-85
2023/09/09 01:57:02;;;;;;;10.02;5.95;;;;;;;25.41;46.70;99848.00;4992986;28;20050;-84
2023/09/09 01:59:28;;;;;;;7.07;6.38;;;;;;;25.40;46.82;99843.63;4975643;28;20054;-85
2023/09/09 02:01:55;;;;;;;7.35;6.57;;;;;;;25.40;46.63;99838.22;4991493;28;20073;-84
2023/09/09 02:04:22;;;;;;;6.55;5.85;;;;;;;25.36;46.78;99841.31;4975629;28;20578;-87
2023/09/09 02:06:49;;;;;;;8.85;6.30;;;;;;;25.36;46.70;99843.16;4992942;28;20054;-83
2023/09/09 02:09:15;;;;;;;9.93;6.40;;;;;;;25.34;46.91;99835.25;4975367;28;20132;-85
2023/09/09 02:11:42;;;;;;;9.02;5.70;;;;;;;25.33;46.82;99840.81;4992647;28;20376;-84
2023/09/09 02:14:08;;;;;;;9.68;6.22;;;;;;;25.32;46.71;99847.25;4992871;28;20096;-86
2023/09/09 02:16:35;;;;;;;6.32;5.57;;;;;;;25.28;46.56;99841.38;4992661;28;20811;-85
2023/09/09 02:19:02;;;;;;;6.60;5.47;;;;;;;25.27;46.80;99842.41;4992686;28;20069;-83
2023/09/09 02:21:29;;;;;;;7.13;5.43;;;;;;;25.25;46.58;99844.44;4991887;28;20148;-84
2023/09/09 02:23:57;;;;;;;6.57;5.60;;;;;;;25.24;46.90;99842.78;4991823;28;20042;-82
2023/09/09 02:26:24;;;;;;;6.53;5.85;;;;;;;25.23;47.01;99841.09;4992191;28;20062;-84
2023/09/09 02:28:50;;;;;;;8.38;5.90;;;;;;;25.21;47.15;99835.03;4974684;28;20108;-80
2023/09/09 02:31:17;;;;;;;6.15;5.55;;;;;;;25.22;47.08;99839.41;4991622;28;20137;-86
2023/09/09 02:33:44;;;;;;;7.40;6.05;;;;;;;25.21;46.64;99837.75;4974210;28;20105;-84
2023/09/09 02:36:10;;;;;;;7.00;5.25;;;;;;;25.20;46.83;99836.06;4991645;28;20046;-81
2023/09/09 02:38:37;;;;;;;6.78;5.72;;;;;;;25.18;46.75;99833.56;4991822;28;20051;-85
2023/09/09 02:41:04;;;;;;;7.00;5.70;;;;;;;25.18;46.74;99835.41;4991331;28;20418;-84
2023/09/09 02:43:30;;;;;;;8.85;5.78;;;;;;;25.17;46.95;99834.59;4990656;28;20046;-85
2023/09/09 02:45:57;;;;;;;7.15;6.13;;;;;;;25.16;46.89;99821.28;4991714;28;20054;-85
2023/09/09 02:48:23;;;;;;;6.85;5.78;;;;;;;25.14;46.72;99834.09;4991670;28;20050;-85
2023/09/09 02:50:50;;;;;;;8.32;5.82;;;;;;;25.13;46.95;99838.66;4991480;28;20104;-85
2023/09/09 02:53:16;;;;;;;6.78;5.45;;;;;;;25.11;46.45;99832.59;4991555;28;20418;-84
2023/09/09 02:55:44;;;;;;;7.13;5.18;;;;;;;25.09;46.76;99835.47;4991687;28;20058;-84
2023/09/09 02:58:13;;;;;;;7.25;5.55;;;;;;;25.07;46.67;99829.44;4991556;28;20053;-85
2023/09/09 03:00:40;;;;;;;7.15;6.10;;;;;;;25.07;46.78;99832.13;4974078;28;20050;-85
2023/09/09 03:03:07;;;;;;;6.65;5.50;;;;;;;25.06;46.61;99837.69;4973887;28;20062;-85
2023/09/09 03:05:36;;;;;;;8.68;5.55;;;;;;;25.05;46.69;99841.41;4991320;28;20384;-85
2023/09/09 03:08:04;;;;;;;7.28;5.28;;;;;;;25.04;46.47;99835.19;4991366;28;20093;-84
2023/09/09 03:10:31;;;;;;;9.23;5.55;;;;;;;25.02;46.45;99829.16;4991520;28;20054;-83
2023/09/09 03:12:58;;;;;;;6.38;5.57;;;;;;;25.00;46.58;99830.34;4991257;28;20058;-84
2023/09/09 03:15:25;;;;;;;6.00;5.40;;;;;;;24.98;46.74;99835.91;4991429;28;20116;-85
2023/09/09 03:17:51;;;;;;;5.53;5.00;;;;;;;24.95;46.77;99831.72;4991226;28;20089;-86
2023/09/09 03:20:18;;;;;;;10.23;5.82;;;;;;;24.94;46.52;99834.59;4973914;28;20050;-84
2023/09/09 03:22:44;;;;;;;6.70;5.82;;;;;;;24.91;47.05;99835.78;4973852;28;20051;-84
2023/09/09 03:25:11;;;;;;;7.55;4.90;;;;;;;24.89;47.17;99828.91;4990173;28;20058;-84
2023/09/09 03:27:38;;;;;;;8.45;5.45;;;;;;;24.87;46.84;99829.09;4991528;28;20058;-84
2023/09/09 03:30:04;;;;;;;6.53;5.20;;;;;;;24.86;47.20;99838.19;4973944;28;20108;-82
2023/09/09 03:32:31;;;;;;;6.38;5.10;;;;;;;24.83;47.30;99836.69;4990826;28;20455;-84
2023/09/09 03:34:58;;;;;;;7.00;5.78;;;;;;;24.81;47.06;99827.94;4991380;28;20062;-84
2023/09/09 03:37:25;;;;;;;6.50;5.82;;;;;;;24.77;47.44;99829.31;4973687;28;20092;-84
2023/09/09 03:39:51;;;;;;;6.25;5.60;;;;;;;24.75;47.05;99830.50;4991239;28;20483;-84
2023/09/09 03:42:18;;;;;;;9.30;6.15;;;;;;;24.73;47.41;99836.06;4991048;28;20055;-87
2023/09/09 03:44:44;;;;;;;6.95;5.60;;;;;;;24.70;46.68;99841.78;4991111;28;20050;-84
2023/09/09 03:47:11;;;;;;;6.63;5.22;;;;;;;24.69;47.51;99834.72;4993797;28;20058;-84
2023/09/09 03:49:37;;;;;;;7.93;5.72;;;;;;;24.68;47.53;99841.13;4994859;28;20090;-85
2023/09/09 03:52:04;;;;;;;7.60;5.50;;;;;;;24.66;47.38;99838.63;4994445;28;20050;-84
2023/09/09 03:54:31;;;;;;;6.78;5.50;;;;;;;24.65;47.45;99836.97;4994867;28;20047;-84
2023/09/09 03:56:57;;;;;;;7.95;6.43;;;;;;;24.65;47.36;99838.78;4994802;28;20050;-84
2023/09/09 03:59:29;;;;;;;7.28;5.82;;;;;;;24.64;47.41;99831.75;4994552;28;20487;-86
2023/09/09 04:01:56;;;;;;;7.53;6.05;;;;;;;24.62;47.55;99845.38;4994656;28;20506;-87
2023/09/09 04:04:23;;;;;;;6.50;5.43;;;;;;;24.61;47.22;99835.63;4994799;28;20042;-85
2023/09/09 04:06:50;;;;;;;7.00;5.40;;;;;;;24.60;47.71;99842.03;4977281;28;20053;-84
2023/09/09 04:09:22;;;;;;;6.20;5.60;;;;;;;24.59;47.17;99840.34;4994643;28;20061;-84
2023/09/09 04:11:49;;;;;;;6.60;5.90;;;;;;;24.57;47.33;99843.25;4994545;28;20542;-84
2023/09/09 04:14:15;;;;;;;5.80;5.13;;;;;;;24.56;47.63;99846.91;4994349;28;20054;-86
2023/09/09 04:16:43;;;;;;;7.35;5.90;;;;;;;24.56;47.64;99846.09;4994529;28;20050;-82
2023/09/09 04:19:10;;;;;;;7.60;5.43;;;;;;;24.54;47.70;99846.28;4994166;28;20475;-87
2023/09/09 04:21:36;;;;;;;6.82;5.82;;;;;;;24.53;48.12;99841.06;4993951;28;20065;-84
2023/09/09 04:24:03;;;;;;;6.68;5.30;;;;;;;24.53;47.83;99841.06;4994117;28;20525;-83
2023/09/09 04:26:30;;;;;;;6.40;5.45;;;;;;;24.52;47.93;99840.22;4994138;28;20054;-84
2023/09/09 04:28:56;;;;;;;7.50;5.28;;;;;;;24.52;48.19;99844.78;4994079;28;20105;-82
2023/09/09 04:31:23;;;;;;;7.97;5.72;;;;;;;24.49;47.79;99843.28;4994017;28;20050;-84
2023/09/09 04:33:49;;;;;;;6.95;5.55;;;;;;;24.49;47.54;99842.44;4994090;28;20105;-84
2023/09/09 04:36:16;;;;;;;12.45;5.50;;;;;;;24.46;48.06;99838.25;4994311;28;20405;-87
2023/09/09 04:38:43;;;;;;;7.50;5.45;;;;;;;24.44;48.18;99841.09;4976574;28;20054;-84
2023/09/09 04:41:09;;;;;;;8.13;6.25;;;;;;;24.42;48.26;99836.91;4993643;28;20059;-86
2023/09/09 04:43:36;;;;;;;6.50;5.43;;;;;;;24.42;47.93;99843.16;4993793;28;20054;-80
2023/09/09 04:46:03;;;;;;;6.22;5.05;;;;;;;24.39;48.22;99837.25;4993774;28;20528;-87
2023/09/09 04:48:30;;;;;;;5.28;4.78;;;;;;;24.38;48.10;99840.97;4993946;28;20054;-87
2023/09/09 04:50:59;;;;;;;6.70;5.00;;;;;;;24.36;48.41;99837.63;4993729;28;20141;-81
2023/09/09 04:53:27;;;;;;;5.97;5.05;;;;;;;24.34;48.17;99849.41;4993645;28;20047;-84
2023/09/09 04:55:54;;;;;;;5.82;5.22;;;;;;;24.32;48.28;99843.38;4976169;28;20046;-82
2023/09/09 04:58:20;;;;;;;5.90;4.75;;;;;;;24.31;48.60;99846.22;4993666;28;20054;-82
2023/09/09 05:00:47;;;;;;;9.77;4.97;;;;;;;24.29;48.44;99846.41;4993663;28;20132;-83
2023/09/09 05:03:14;;;;;;;7.68;5.88;;;;;;;24.27;48.49;99845.75;4992086;28;20058;-84
2023/09/09 05:05:40;;;;;;;8.70;5.20;;;;;;;24.26;48.61;99843.22;4993463;28;20047;-84
2023/09/09 05:08:07;;;;;;;7.35;5.07;;;;;;;24.24;48.71;99846.09;4993434;28;20522;-84
2023/09/09 05:10:34;;;;;;;5.60;5.00;;;;;;;24.24;48.66;99850.63;4993126;28;20054;-84
2023/09/09 05:13:00;;;;;;;6.38;4.55;;;;;;;24.23;48.88;99848.94;4993150;28;20054;-85
2023/09/09 05:15:27;;;;;;;5.85;4.72;;;;;;;24.23;48.50;99851.63;4993261;28;20467;-86
2023/09/09 05:17:54;;;;;;;7.43;4.47;;;;;;;24.21;48.88;99859.88;4993154;28;20042;-83
2023/09/09 05:20:21;;;;;;;5.55;4.93;;;;;;;24.19;48.65;99854.66;4974887;28;20050;-83
2023/09/09 05:22:47;;;;;;;5.82;4.70;;;;;;;24.18;49.03;99853.00;4992094;28;20054;-81
2023/09/09 05:25:14;;;;;;;6.10;4.97;;;;;;;24.18;48.92;99844.13;4992381;28;20046;-83
2023/09/09 05:27:41;;;;;;;5.05;4.55;;;;;;;24.17;49.00;99853.16;4992910;28;20097;-81
2023/09/09 05:30:08;;;;;;;5.68;4.68;;;;;;;24.17;49.14;99847.78;4993103;28;20054;-81
2023/09/09 05:32:35;;;;;;;6.18;5.05;;;;;;;24.17;49.10;99853.16;4991302;28;20054;-82
2023/09/09 05:35:02;;;;;;;5.47;4.90;;;;;;;24.16;49.30;99857.72;4991347;28;20082;-84
2023/09/09 05:37:30;;;;;;;6.65;4.97;;;;;;;24.16;48.82;99859.56;4993013;28;20050;-92
2023/09/09 05:39:57;;;;;;;6.53;5.03;;;;;;;24.15;48.83;99857.91;4993175;28;20126;-87
2023/09/09 05:42:28;;;;;;;6.03;5.13;;;;;;;24.14;48.99;99859.75;4992808;28;20046;-90
2023/09/09 05:44:54;;;;;;;6.68;5.05;;;;;;;24.14;49.05;99861.63;4975872;28;20050;-90
2023/09/09 05:47:21;;;;;;;5.97;4.93;;;;;;;24.15;48.99;99863.28;4992990;28;20093;-91
2023/09/09 05:49:48;;;;;;;6.13;4.82;;;;;;;24.17;49.04;99863.94;4992814;28;20062;-83
2023/09/09 05:52:15;;;;;;;7.63;5.22;;;;;;;24.16;49.41;99868.50;4992364;28;20054;-90
2023/09/09 05:54:42;;;;;;;5.53;5.00;;;;;;;24.18;49.55;99874.50;4992758;28;20133;-87
2023/09/09 05:57:08;;;;;;;6.32;4.68;;;;;;;24.19;49.11;99867.31;4992699;28;20132;-87
2023/09/09 05:59:35;;;;;;;4.88;4.35;;;;;;;24.21;49.18;99867.94;4975303;28;20097;-90
2023/09/09 06:02:02;;;;;;;8.13;4.78;;;;;;;24.23;49.24;99865.09;4992105;28;20376;-87
2023/09/09 06:04:28;;;;;;;6.15;4.88;;;;;;;24.24;49.03;99864.91;4992573;28;20105;-92
2023/09/09 06:06:56;;;;;;;8.18;4.30;;;;;;;24.26;49.55;99876.31;4993775;28;20530;-88
2023/09/09 06:09:22;;;;;;;5.22;4.45;;;;;;;24.29;49.16;99867.91;4992661;28;20054;-86
2023/09/09 06:11:50;;;;;;;6.30;4.22;;;;;;;24.30;49.05;99872.28;4993852;28;20136;-93
2023/09/09 06:14:17;;;;;;;6.32;5.00;;;;;;;24.32;49.29;99875.66;4992861;28;20504;-92
2023/09/09 06:16:43;;;;;;;5.70;4.80;;;;;;;24.36;49.31;99880.69;4992481;28;20069;-88
2023/09/09 06:19:10;;;;;;;5.13;4.53;;;;;;;24.39;49.39;99880.31;4992325;28;20141;-90
2023/09/09 06:21:38;;;;;;;10.02;4.95;;;;;;;24.41;49.54;99889.06;4992502;28;20132;-91
2023/09/09 06:24:06;;;;;;;5.85;4.95;;;;;;;24.44;49.04;99881.47;4992434;28;20458;-88
2023/09/09 06:26:33;;;;;;;5.30;4.63;;;;;;;24.47;49.03;99882.97;4992509;28;20061;-88
2023/09/09 06:29:00;;;;;;;6.13;4.65;;;;;;;24.49;48.97;99890.88;4992334;28;20046;-90
2023/09/09 06:31:27;;;;;;;6.07;4.55;;;;;;;24.51;49.14;99886.97;4991972;28;20060;-88
2023/09/09 06:33:54;;;;;;;7.13;5.00;;;;;;;24.54;49.28;99896.56;4992288;28;20054;-94
2023/09/09 06:36:21;;;;;;;5.55;4.90;;;;;;;24.56;49.36;99891.84;4992210;28;20054;-88
2023/09/09 06:38:49;;;;;;;5.07;4.57;;;;;;;24.58;49.23;99897.88;4992368;28;20141;-91
2023/09/09 06:41:16;;;;;;;6.70;4.80;;;;;;;24.59;49.22;99889.63;4974668;28;20213;-90
2023/09/09 06:43:46;;;;;;;9.27;4.70;;;;;;;24.62;48.88;99903.75;4992158;28;20089;-92
2023/09/09 06:46:13;;;;;;;5.93;4.88;;;;;;;24.64;49.06;99899.03;4991980;28;20129;-90
2023/09/09 06:48:39;;;;;;;5.82;4.88;;;;;;;24.66;49.19;99896.97;4992168;28;20050;-88
2023/09/09 06:51:06;;;;;;;7.40;4.82;;;;;;;24.67;49.04;99894.13;4991831;28;20054;-89
2023/09/09 06:53:32;;;;;;;8.27;5.00;;;;;;;24.69;49.15;99902.03;4992051;28;20101;-84
2023/09/09 06:55:59;;;;;;;4.95;4.45;;;;;;;24.71;48.81;99908.91;4992165;28;20082;-88
2023/09/09 06:58:26;;;;;;;4.90;4.15;;;;;;;24.72;49.04;99910.59;4991813;28;20113;-93
2023/09/09 07:00:53;;;;;;;6.80;4.32;;;;;;;24.73;48.74;99914.13;4974371;28;20097;-87
2023/09/09 07:03:20;;;;;;;5.43;4.70;;;;;;;24.75;49.03;99917.47;4991702;28;20057;-89
2023/09/09 07:05:47;;;;;;;5.43;4.55;;;;;;;24.77;48.69;99915.44;4991966;28;20062;-90
2023/09/09 07:08:14;;;;;;;5.30;4.50;;;;;;;24.79;48.79;99912.56;4991914;28;20077;-91
2023/09/09 07:10:53;;;;;;;7.25;4.72;;;;;;;24.77;49.04;99915.44;4991846;28;20051;-86
2023/09/09 07:13:23;;;;;;;7.82;5.07;;;;;;;24.83;48.93;99903.97;4991478;28;20058;-88
2023/09/09 07:15:53;;;;;;;8.40;5.10;;;;;;;24.85;48.75;99914.56;4974632;28;20411;-90
2023/09/09 07:18:21;;;;;;;7.53;4.40;;;;;;;24.85;48.81;99915.44;4991747;28;20042;-86
2023/09/09 07:20:48;;;;;;;6.68;4.68;;;;;;;24.88;48.75;99916.91;4992165;28;20054;-89
2023/09/09 07:23:16;;;;;;;6.07;4.70;;;;;;;24.89;48.53;99915.91;4995181;28;20061;-86
2023/09/09 07:25:44;;;;;;;5.35;4.70;;;;;;;24.92;48.96;99918.25;4995327;28;20057;-87
2023/09/09 07:28:11;;;;;;;5.22;4.72;;;;;;;24.93;48.52;99917.22;4995634;28;20418;-89
2023/09/09 07:30:38;;;;;;;8.82;4.70;;;;;;;24.97;48.56;99920.41;4995724;28;20046;-92
2023/09/09 07:33:04;;;;;;;6.63;4.88;;;;;;;24.97;48.53;99913.16;4995335;28;20061;-91
2023/09/09 07:35:33;;;;;;;6.07;4.88;;;;;;;25.00;48.58;99913.81;4995559;28;20054;-90
2023/09/09 07:38:00;;;;;;;6.57;4.75;;;;;;;25.02;48.88;99912.63;4995184;28;20142;-92
2023/09/09 07:40:27;;;;;;;6.82;4.68;;;;;;;25.05;48.81;99912.28;4995149;28;20065;-89
2023/09/09 07:42:53;;;;;;;7.57;4.43;;;;;;;25.07;49.45;99910.22;4994672;28;20506;-93
2023/09/09 07:45:20;;;;;;;4.88;4.38;;;;;;;25.12;49.39;99923.19;4995527;28;20050;-91
2023/09/09 07:47:47;;;;;;;6.82;5.10;;;;;;;25.15;49.36;99920.09;4977992;28;20112;-90
2023/09/09 07:50:13;;;;;;;6.35;4.60;;;;;;;25.20;49.27;99924.97;4995211;28;20109;-90
2023/09/09 07:52:40;;;;;;;6.25;5.00;;;;;;;25.24;49.23;99920.88;4994778;28;20133;-90
2023/09/09 07:55:07;;;;;;;6.30;5.32;;;;;;;25.29;49.56;99929.25;5156307;23;20045;-77
2023/09/09 07:57:34;;;;;;;5.53;5.03;;;;;;;25.33;49.59;99925.19;5034735;28;20045;-78
2023/09/09 08:00:01;;;;;;;5.93;4.90;;;;;;;25.37;49.58;99923.81;5034731;28;20132;-78
2023/09/09 08:02:27;;;;;;;10.02;5.28;;;;;;;25.42;50.00;99927.81;5034436;28;20478;-81
2023/09/09 08:04:54;;;;;;;5.57;5.07;;;;;;;25.48;49.90;99932.47;5034639;28;20045;-75
2023/09/09 08:07:20;;;;;;;7.00;5.05;;;;;;;25.52;49.94;99928.41;5034528;28;20084;-77
2023/09/09 08:09:47;;;;;;;5.55;4.95;;;;;;;25.57;49.70;99930.59;5034971;28;20049;-78
2023/09/09 08:12:14;;;;;;;12.20;6.80;;;;;;;25.62;49.81;99934.41;5034381;28;20049;-83
2023/09/09 08:14:42;;;;;;;6.93;5.15;;;;;;;25.68;49.93;99934.72;5034426;28;20072;-77
2023/09/09 08:17:09;;;;;;;7.05;5.20;;;;;;;25.73;50.14;99929.59;5034426;28;20041;-80
2023/09/09 08:19:35;;;;;;;5.28;4.78;;;;;;;25.80;49.44;99935.09;5034323;28;20123;-79
2023/09/09 08:22:02;;;;;;;8.65;5.38;;;;;;;25.84;49.46;99931.00;5033922;28;20064;-77
2023/09/09 08:24:29;;;;;;;5.85;4.90;;;;;;;25.88;49.37;99932.31;5034479;28;20077;-78
2023/09/09 08:26:55;;;;;;;7.43;5.03;;;;;;;25.93;49.49;99929.09;5034356;28;20457;-75
2023/09/09 08:29:22;;;;;;;7.22;5.55;;;;;;;25.96;49.86;99934.94;5034094;28;20049;-79
2023/09/09 08:31:48;;;;;;;6.28;5.40;;;;;;;26.00;49.54;99930.84;5033202;28;20398;-77
2023/09/09 08:34:15;;;;;;;7.22;5.53;;;;;;;26.05;49.49;99934.84;5034108;28;20409;-78
2023/09/09 08:36:42;;;;;;;5.45;4.82;;;;;;;26.09;49.63;99933.47;5033942;28;20050;-77
2023/09/09 08:39:11;;;;;;;5.72;5.05;;;;;;;26.14;49.28;99939.97;5034068;28;20049;-78
2023/09/09 08:41:43;;;;;;;6.93;5.65;;;;;;;26.20;49.48;99940.25;5033768;28;20045;-78
2023/09/09 08:44:43;;;;;;;7.18;5.15;;;;;;;26.22;49.62;99932.78;5033871;28;20103;-81
2023/09/09 08:47:11;;;;;;;6.18;5.40;;;;;;;26.33;49.19;99929.66;5033846;28;20041;-81
2023/09/09 08:49:43;;;;;;;6.72;5.00;;;;;;;26.38;48.98;99940.72;5033750;28;20128;-80
2023/09/09 08:52:19;;;;;;;9.40;5.03;;;;;;;26.44;49.39;99941.00;5033611;28;20104;-79
2023/09/09 08:54:46;;;;;;;7.93;5.55;;;;;;;26.53;48.77;99937.16;5033672;28;20084;-79
2023/09/09 08:57:12;;;;;;;6.57;5.78;;;;;;;26.59;48.74;99941.81;5033639;28;20045;-79
2023/09/09 08:59:39;;;;;;;7.78;5.53;;;;;;;26.66;48.84;99945.44;5033340;28;20152;-78
2023/09/09 09:02:09;;;;;;;5.88;5.20;;;;;;;26.70;49.21;99943.19;5033246;28;20041;-78
2023/09/09 09:04:37;;;;;;;6.55;5.40;;;;;;;26.78;48.73;99948.50;5033643;28;20584;-78
2023/09/09 09:07:05;;;;;;;6.30;5.10;;;;;;;26.84;48.80;99944.19;5033411;28;20126;-77
2023/09/09 09:09:34;;;;;;;8.65;5.10;;;;;;;26.92;49.13;99937.84;5033408;28;20057;-81
2023/09/09 09:12:03;;;;;;;5.90;5.30;;;;;;;26.99;49.16;99940.66;5032954;28;20048;-78
2023/09/09 09:14:29;;;;;;;9.60;5.70;;;;;;;27.08;48.98;99942.19;5033228;28;20482;-74
2023/09/09 09:16:57;;;;;;;6.80;5.03;;;;;;;27.17;49.12;99948.31;5033475;28;20048;-78
2023/09/09 09:19:28;;;;;;;6.40;5.40;;;;;;;27.23;49.16;99950.25;5033219;28;20045;-79
2023/09/09 09:21:55;;;;;;;5.75;5.25;;;;;;;27.32;48.66;99949.06;5015635;28;20072;-77
2023/09/09 09:24:26;;;;;;;6.82;5.70;;;;;;;27.40;48.27;99947.28;5033203;28;20053;-79
2023/09/09 09:26:56;;;;;;;5.90;5.30;;;;;;;27.49;47.92;99947.97;5015613;28;20053;-78
2023/09/09 09:29:23;;;;;;;6.18;5.55;;;;;;;27.57;48.07;99948.69;5033165;28;20054;-78
2023/09/09 09:31:51;;;;;;;5.75;5.25;;;;;;;27.66;47.95;99945.88;5031628;28;20053;-77
2023/09/09 09:34:19;;;;;;;5.95;5.30;;;;;;;27.73;47.82;99945.91;5033110;28;20092;-82
2023/09/09 09:36:46;;;;;;;5.93;5.32;;;;;;;27.80;47.51;99938.66;5032967;28;20049;-79
2023/09/09 09:39:15;;;;;;;8.15;5.60;;;;;;;27.89;47.97;99953.75;5032749;28;20080;-78
2023/09/09 09:41:45;;;;;;;8.32;5.32;;;;;;;27.97;48.19;99950.84;5032777;28;20128;-78
2023/09/09 09:44:19;;;;;;;6.60;5.78;;;;;;;28.03;47.47;99949.22;5031921;28;20631;-78
2023/09/09 09:47:01;;;;;;;7.15;5.70;;;;;;;28.12;47.70;99949.06;5032830;28;20052;-78
2023/09/09 09:49:44;;;;;;;9.02;5.97;;;;;;;28.23;47.37;99949.34;5032698;28;20048;-78
2023/09/09 09:52:24;;;;;;;6.78;5.50;;;;;;;28.31;46.90;99945.69;5032644;28;20049;-77
2023/09/09 09:54:53;;;;;;;6.03;5.43;;;;;;;28.43;46.73;99945.94;5032441;28;20143;-76
2023/09/09 09:57:21;;;;;;;7.28;5.57;;;;;;;28.50;46.91;99940.56;5032717;28;20103;-78
2023/09/09 09:59:47;;;;;;;6.47;5.65;;;;;;;28.59;46.91;99941.25;5032406;28;20111;-78
2023/09/09 10:02:15;;;;;;;9.70;5.57;;;;;;;28.67;47.37;99943.75;5032170;28;20042;-81
2023/09/09 10:04:42;;;;;;;6.45;5.22;;;;;;;28.77;47.80;99942.56;5032267;28;20041;-78
2023/09/09 10:07:16;;;;;;;9.75;5.90;;;;;;;28.87;46.73;99943.84;5032310;28;20520;-75
2023/09/09 10:09:59;;;;;;;7.72;5.57;;;;;;;29.01;47.26;99943.88;5015021;28;20370;-83
2023/09/09 10:12:30;;;;;;;5.68;5.18;;;;;;;29.16;46.62;99946.44;5031983;28;20079;-76
2023/09/09 10:15:15;;;;;;;8.00;5.50;;;;;;;29.30;46.11;99938.31;5032109;28;20525;-75
2023/09/09 10:17:43;;;;;;;7.40;5.40;;;;;;;29.41;45.21;99937.66;5032355;28;20049;-80
2023/09/09 10:20:11;;;;;;;10.48;5.90;;;;;;;29.53;44.81;99948.78;5032190;28;20057;-77
2023/09/09 10:22:41;;;;;;;8.50;5.20;;;;;;;29.63;46.07;99941.03;5014270;28;20049;-78
2023/09/09 10:25:10;;;;;;;5.15;4.65;;;;;;;29.76;46.76;99942.09;5032058;28;20049;-78
2023/09/09 10:27:39;;;;;;;6.53;4.95;;;;;;;29.89;46.87;99946.66;5031884;28;20049;-78
2023/09/09 10:30:10;;;;;;;6.15;5.25;;;;;;;30.02;46.64;99943.91;5032170;28;20041;-80
2023/09/09 10:32:38;;;;;;;10.25;5.53;;;;;;;30.18;45.61;99947.25;5031789;28;20049;-79
2023/09/09 10:35:06;;;;;;;7.00;5.57;;;;;;;30.29;45.26;99943.88;5031496;28;20045;-82
2023/09/09 10:37:35;;;;;;;6.53;5.47;;;;;;;30.42;45.90;99950.28;5031292;28;20096;-81
2023/09/09 10:40:05;;;;;;;7.63;5.18;;;;;;;30.53;44.83;99944.19;5031035;28;20057;-78
2023/09/09 10:42:37;;;;;;;6.10;5.50;;;;;;;30.65;44.50;99946.25;5031326;28;20054;-78
2023/09/09 10:45:23;;;;;;;6.95;5.18;;;;;;;30.72;45.55;99938.91;5013689;28;20045;-79
2023/09/09 10:47:57;;;;;;;6.20;5.50;;;;;;;30.90;44.47;99940.06;5031132;28;20072;-77
2023/09/09 10:50:49;;;;;;;7.25;4.70;;;;;;;30.99;45.10;99937.94;5029952;28;20394;-78
2023/09/09 10:53:26;;;;;;;7.63;5.63;;;;;;;31.17;46.24;99935.31;5030966;28;20168;-79
2023/09/09 10:55:58;;;;;;;7.65;5.28;;;;;;;31.32;45.51;99937.72;5030651;28;20076;-83
2023/09/09 10:58:33;;;;;;;6.32;5.45;;;;;;;31.50;44.70;99940.75;5013432;28;20401;-78
2023/09/09 11:01:01;;;;;;;7.93;5.57;;;;;;;31.70;45.34;99935.94;5030780;28;20168;-80
2023/09/09 11:03:37;;;;;;;6.50;5.50;;;;;;;31.96;46.81;99931.31;5013159;28;20095;-77
2023/09/09 11:06:06;;;;;;;6.85;5.47;;;;;;;32.31;46.00;99938.06;5013326;28;20091;-83
2023/09/09 11:08:43;;;;;;;6.93;5.32;;;;;;;32.75;45.86;99928.97;5030982;28;20136;-81
2023/09/09 11:11:12;;;;;;;7.32;5.45;;;;;;;33.32;44.33;99941.34;5013012;28;20042;-77
2023/09/09 11:13:59;;;;;;;7.70;5.35;;;;;;;33.97;43.48;99932.50;5030873;28;20046;-78
2023/09/09 11:16:31;;;;;;;5.97;4.63;;;;;;;34.74;41.91;99935.19;5030798;28;20374;-78
2023/09/09 11:19:12;;;;;;;5.50;4.97;;;;;;;35.45;41.29;99929.31;5030883;28;20060;-80
2023/09/09 11:21:44;;;;;;;5.10;4.60;;;;;;;36.20;41.45;99927.38;5030397;28;20414;-83
2023/09/09 11:24:12;;;;;;;6.43;4.65;;;;;;;36.87;39.41;99930.06;5030890;28;20520;-81
2023/09/09 11:26:40;;;;;;;7.45;5.00;;;;;;;37.48;39.11;99931.69;5030827;28;20050;-80
2023/09/09 11:29:08;;;;;;;6.63;4.78;;;;;;;38.04;37.66;99927.63;5030831;28;20037;-80
2023/09/09 11:31:46;;;;;;;4.75;4.35;;;;;;;38.61;37.19;99918.00;5030372;28;20668;-76
2023/09/09 11:34:14;;;;;;;4.43;4.03;;;;;;;39.11;35.43;99926.59;5030599;28;20105;-77
2023/09/09 11:36:43;;;;;;;4.40;4.00;;;;;;;39.57;34.36;99922.19;5030878;28;20072;-76
2023/09/09 11:39:11;;;;;;;4.78;4.10;;;;;;;39.97;33.31;99914.09;5030634;28;20541;-81